Time;durP1;ratioP1;P1;durP2;ratioP2;P2;SDS_P1;SDS_P2;PMS_P1;PMS_P2;Temp;Humidity;BMP_temperature;BMP_pressure;BME280_temperature;BME280_humidity;BME280_pressure;Samples;Min_cycle;Max_cycle;Signal;HPM_P1;HPM_P2
2021/01/29 00:00:10;;;;;;;19.30;9.68;;;22.70;30.50;;;;;;6146097;28;80645;-63
2021/01/29 00:03:11;;;;;;;18.95;10.05;;;22.80;30.60;;;;;;6153141;28;81479;-63
2021/01/29 00:06:12;;;;;;;19.98;10.32;;;22.70;30.30;;;;;;6150564;28;83329;-62
2021/01/29 00:09:13;;;;;;;20.55;10.75;;;22.70;30.50;;;;;;6171992;27;83694;-63
2021/01/29 00:12:13;;;;;;;19.40;10.25;;;22.70;30.50;;;;;;6174073;27;83684;-62
2021/01/29 00:15:14;;;;;;;19.67;10.73;;;22.70;30.40;;;;;;6174554;27;83157;-63
2021/01/29 00:18:14;;;;;;;19.98;10.60;;;22.70;30.40;;;;;;6150832;28;83299;-63
2021/01/29 00:21:15;;;;;;;19.52;10.55;;;22.60;30.40;;;;;;6148734;28;83456;-63
2021/01/29 00:24:15;;;;;;;22.67;11.75;;;22.60;30.50;;;;;;6171280;28;84168;-64
2021/01/29 00:27:16;;;;;;;21.70;11.75;;;22.60;30.40;;;;;;6152033;28;83511;-63
2021/01/29 00:30:16;;;;;;;23.20;12.52;;;22.60;30.50;;;;;;6148992;28;84153;-63
2021/01/29 00:33:17;;;;;;;23.13;11.75;;;22.60;30.50;;;;;;6171632;28;82966;-63
2021/01/29 00:36:18;;;;;;;24.98;12.35;;;22.70;30.50;;;;;;6172095;27;83693;-63
2021/01/29 00:39:18;;;;;;;22.27;12.38;;;22.60;30.40;;;;;;6169003;28;83106;-63
2021/01/29 00:42:19;;;;;;;21.42;11.25;;;22.60;30.40;;;;;;6149422;28;83897;-64
2021/01/29 00:45:19;;;;;;;24.70;12.05;;;22.60;30.40;;;;;;6170598;28;83624;-63
2021/01/29 00:48:20;;;;;;;24.92;12.75;;;22.60;30.50;;;;;;6172780;28;83949;-63
2021/01/29 00:51:20;;;;;;;23.35;12.63;;;22.60;30.40;;;;;;6176660;27;83453;-63
2021/01/29 00:54:21;;;;;;;24.23;12.98;;;22.60;30.30;;;;;;6154688;28;83550;-62
2021/01/29 00:57:22;;;;;;;28.85;13.43;;;22.60;30.50;;;;;;6167402;28;84604;-63
2021/01/29 01:00:42;;;;;;;26.80;13.68;;;22.60;30.40;;;;;;6150739;28;86437;-62
2021/01/29 01:03:50;;;;;;;26.20;12.48;;;22.50;30.40;;;;;;6172748;27;86135;-63
2021/01/29 01:06:51;;;;;;;26.58;12.70;;;22.60;30.30;;;;;;6169961;28;83194;-63
2021/01/29 01:10:10;;;;;;;27.90;13.13;;;22.60;30.40;;;;;;6153213;28;83570;-63
2021/01/29 01:13:36;;;;;;;26.15;12.80;;;22.50;30.40;;;;;;6150248;28;83584;-63
2021/01/29 01:16:55;;;;;;;23.58;12.48;;;22.60;30.50;;;;;;6164208;28;83314;-63
2021/01/29 01:20:19;;;;;;;25.17;12.68;;;22.50;30.60;;;;;;6176660;28;83945;-63
2021/01/29 01:23:19;;;;;;;24.98;12.85;;;22.50;30.70;;;;;;6168238;28;84105;-62
2021/01/29 01:26:21;;;;;;;25.27;12.32;;;22.50;31.30;;;;;;6159544;27;84348;-62
2021/01/29 01:29:51;;;;;;;25.50;12.70;;;22.50;30.80;;;;;;6177919;28;83330;-62
2021/01/29 01:32:51;;;;;;;21.02;11.25;;;22.50;30.70;;;;;;6184217;27;85891;-62
2021/01/29 01:36:21;;;;;;;24.35;12.52;;;22.40;30.80;;;;;;6173859;27;83554;-62
2021/01/29 01:39:35;;;;;;;20.85;11.23;;;22.40;30.70;;;;;;6138344;28;88291;-62
2021/01/29 01:42:36;;;;;;;21.38;11.43;;;22.40;30.80;;;;;;6176365;28;83633;-62
2021/01/29 01:45:36;;;;;;;22.08;11.32;;;22.40;30.70;;;;;;6176475;28;83243;-63
2021/01/29 01:48:37;;;;;;;25.13;10.23;;;22.50;30.80;;;;;;6166973;28;84943;-63
2021/01/29 01:52:02;;;;;;;22.92;10.60;;;22.40;30.90;;;;;;6173882;27;84460;-62
2021/01/29 01:55:07;;;;;;;20.58;10.70;;;22.40;30.80;;;;;;6176345;28;83236;-62
2021/01/29 01:58:14;;;;;;;21.45;10.45;;;22.50;30.80;;;;;;6171764;27;85979;-62
2021/01/29 02:01:35;;;;;;;16.23;9.18;;;22.40;30.80;;;;;;6175392;28;83949;-62
2021/01/29 02:04:54;;;;;;;19.80;10.63;;;22.40;30.70;;;;;;6168520;28;81654;-62
2021/01/29 02:08:12;;;;;;;17.50;9.88;;;22.40;30.60;;;;;;6172777;28;83173;-62
2021/01/29 02:11:31;;;;;;;20.42;9.13;;;22.40;30.60;;;;;;6161256;28;82531;-62
2021/01/29 02:14:50;;;;;;;17.05;9.15;;;22.40;30.70;;;;;;6174304;28;80760;-62
2021/01/29 02:17:58;;;;;;;17.33;9.20;;;22.40;30.70;;;;;;6178309;28;81385;-62
2021/01/29 02:21:14;;;;;;;16.17;9.30;;;22.40;30.60;;;;;;6179595;28;80415;-61
2021/01/29 02:24:37;;;;;;;18.15;9.15;;;22.40;30.60;;;;;;6169132;28;86017;-62
2021/01/29 02:27:58;;;;;;;18.08;8.95;;;22.40;30.60;;;;;;6144162;28;82448;-63
2021/01/29 02:31:29;;;;;;;14.43;8.27;;;22.40;30.70;;;;;;6169717;28;82843;-62
2021/01/29 02:34:30;;;;;;;14.82;8.35;;;22.40;30.60;;;;;;6161532;28;83446;-62
2021/01/29 02:37:48;;;;;;;15.85;8.38;;;22.40;30.50;;;;;;6168223;27;81115;-62
2021/01/29 02:41:05;;;;;;;13.77;7.97;;;22.40;30.70;;;;;;6148138;28;83238;-62
2021/01/29 02:44:07;;;;;;;16.73;9.02;;;22.40;30.50;;;;;;6181572;28;83317;-62
2021/01/29 02:47:34;;;;;;;;;;;22.40;30.60;;;;;;6177676;28;80650;-61
2021/01/29 02:50:53;;;;;;;16.10;8.60;;;22.40;30.50;;;;;;6185027;27;80078;-62
2021/01/29 02:54:12;;;;;;;13.40;8.00;;;22.40;30.60;;;;;;6153981;28;80578;-62
2021/01/29 02:57:39;;;;;;;16.33;8.52;;;22.40;30.60;;;;;;6176156;28;86482;-62
2021/01/29 03:01:06;;;;;;;;;;;22.40;30.70;;;;;;6173025;27;80913;-62
2021/01/29 03:04:06;;;;;;;15.75;8.32;;;22.40;30.80;;;;;;6160359;28;82780;-62
2021/01/29 03:07:26;;;;;;;15.80;8.68;;;22.30;30.60;;;;;;6166514;27;80774;-62
2021/01/29 03:10:45;;;;;;;14.95;8.27;;;22.30;30.60;;;;;;6161961;28;80468;-62
2021/01/29 03:14:04;;;;;;;14.93;8.10;;;22.30;30.90;;;;;;6166631;27;80473;-62
2021/01/29 03:17:23;;;;;;;17.10;8.57;;;22.30;30.70;;;;;;6163954;28;80537;-62
2021/01/29 03:20:43;;;;;;;14.35;8.55;;;22.30;30.70;;;;;;6161927;28;80542;-62
2021/01/29 03:24:02;;;;;;;15.57;8.95;;;22.30;30.70;;;;;;6177850;28;81444;-63
2021/01/29 03:27:20;;;;;;;14.40;8.02;;;22.30;30.70;;;;;;6177230;28;80716;-62
2021/01/29 03:30:39;;;;;;;16.00;8.43;;;22.30;30.80;;;;;;6173404;28;80712;-62
2021/01/29 03:34:03;;;;;;;16.40;7.95;;;22.30;30.70;;;;;;6185793;28;80859;-62
2021/01/29 03:37:22;;;;;;;15.88;8.45;;;22.30;30.80;;;;;;6176037;28;85229;-63
2021/01/29 03:40:41;;;;;;;13.48;8.13;;;22.30;30.60;;;;;;6175496;28;80574;-62
2021/01/29 03:44:01;;;;;;;14.38;7.65;;;22.20;30.60;;;;;;6176487;28;80375;-62
2021/01/29 03:47:22;;;;;;;16.83;8.02;;;22.30;30.70;;;;;;6173332;27;80617;-63
2021/01/29 03:50:41;;;;;;;13.77;7.90;;;22.30;30.70;;;;;;6170023;28;80615;-62
2021/01/29 03:54:00;;;;;;;15.38;8.55;;;22.20;30.40;;;;;;6170932;28;80708;-62
2021/01/29 03:57:19;;;;;;;12.48;7.45;;;22.20;30.40;;;;;;6169993;28;80638;-62
2021/01/29 04:00:38;;;;;;;15.38;8.10;;;22.30;30.40;;;;;;6177117;27;80395;-62
2021/01/29 04:04:14;;;;;;;14.18;7.72;;;22.20;30.20;;;;;;6165438;28;84752;-63
2021/01/29 04:07:52;;;;;;;13.50;7.85;;;22.20;30.30;;;;;;6171727;28;82833;-62
2021/01/29 04:11:12;;;;;;;15.77;8.18;;;22.20;30.80;;;;;;6169651;28;81034;-61
2021/01/29 04:14:30;;;;;;;15.02;7.25;;;22.20;30.10;;;;;;6155798;28;81404;-61
2021/01/29 04:17:30;;;;;;;12.18;7.65;;;22.20;30.30;;;;;;6152885;28;81223;-61
2021/01/29 04:20:31;;;;;;;11.63;6.45;;;22.20;30.60;;;;;;6164475;28;80617;-62
2021/01/29 04:23:31;;;;;;;14.15;7.40;;;22.20;30.40;;;;;;6176246;28;83541;-61
2021/01/29 04:26:32;;;;;;;14.95;7.43;;;22.20;30.10;;;;;;6176497;27;81732;-61
2021/01/29 04:29:32;;;;;;;14.07;7.55;;;22.20;30.30;;;;;;6168152;28;80570;-61
2021/01/29 04:32:33;;;;;;;12.90;6.85;;;22.30;30.30;;;;;;6173827;28;80696;-61
2021/01/29 04:35:33;;;;;;;12.93;7.72;;;22.30;30.00;;;;;;6165696;28;80660;-60
2021/01/29 04:38:34;;;;;;;11.68;7.18;;;22.30;29.60;;;;;;6163088;28;82324;-61
2021/01/29 04:41:34;;;;;;;11.68;6.88;;;22.30;29.50;;;;;;6162371;27;80708;-61
2021/01/29 04:44:35;;;;;;;12.05;6.90;;;22.40;29.80;;;;;;6176981;27;80532;-61
2021/01/29 04:47:36;;;;;;;12.93;7.05;;;22.50;29.80;;;;;;6164915;28;81250;-60
2021/01/29 04:50:36;;;;;;;12.88;7.68;;;22.50;30.10;;;;;;6146372;28;80749;-61
2021/01/29 04:53:37;;;;;;;11.27;6.43;;;22.50;30.00;;;;;;6161881;28;80840;-61
2021/01/29 04:56:37;;;;;;;11.38;7.20;;;22.50;29.70;;;;;;6171913;28;81559;-62
2021/01/29 04:59:38;;;;;;;11.25;6.90;;;22.50;29.70;;;;;;6174657;28;82016;-63
2021/01/29 05:02:57;;;;;;;12.07;6.90;;;22.50;29.60;;;;;;6173259;27;80663;-63
2021/01/29 05:06:29;;;;;;;10.52;6.13;;;22.60;29.50;;;;;;6159706;28;80905;-63
2021/01/29 05:09:49;;;;;;;10.32;6.00;;;22.60;29.70;;;;;;6147113;27;81080;-66
2021/01/29 05:13:01;;;;;;;9.52;6.30;;;22.60;30.10;;;;;;6168432;28;80534;-65
2021/01/29 05:16:01;;;;;;;12.25;6.50;;;22.70;29.60;;;;;;6176364;27;81337;-64
2021/01/29 05:19:02;;;;;;;11.00;6.40;;;22.70;29.60;;;;;;6172405;28;80728;-64
2021/01/29 05:22:03;;;;;;;14.45;6.53;;;22.80;29.90;;;;;;6145113;28;80695;-64
2021/01/29 05:25:03;;;;;;;24.20;8.23;;;22.80;30.00;;;;;;6190835;27;83342;-64
2021/01/29 05:28:04;;;;;;;546.08;161.35;;;22.90;30.30;;;;;;6174924;28;82063;-63
2021/01/29 05:31:04;;;;;;;694.85;226.60;;;22.80;30.00;;;;;;6165245;28;85310;-66
2021/01/29 05:34:05;;;;;;;895.97;314.65;;;22.90;30.40;;;;;;6170069;27;86274;-63
2021/01/29 05:37:05;;;;;;;994.72;347.42;;;22.90;30.30;;;;;;6174890;28;85702;-64
2021/01/29 05:40:06;;;;;;;746.00;262.55;;;23.00;30.50;;;;;;6175502;28;86510;-63
2021/01/29 05:43:06;;;;;;;688.05;228.45;;;23.00;30.40;;;;;;6151775;28;85842;-63
2021/01/29 05:46:07;;;;;;;612.88;201.38;;;23.00;30.30;;;;;;6167260;28;85852;-63
2021/01/29 05:49:09;;;;;;;582.75;188.88;;;23.00;30.30;;;;;;6177771;28;86649;-63
2021/01/29 05:52:09;;;;;;;527.03;164.85;;;23.00;30.20;;;;;;6176187;28;86570;-63
2021/01/29 05:55:10;;;;;;;495.58;151.00;;;23.10;30.10;;;;;;6166385;28;85647;-63
2021/01/29 05:58:10;;;;;;;478.25;138.68;;;23.10;30.30;;;;;;6155883;27;86181;-62
2021/01/29 06:01:11;;;;;;;413.48;123.72;;;23.10;30.90;;;;;;6155219;28;86948;-62
2021/01/29 06:04:11;;;;;;;407.05;119.25;;;23.20;30.60;;;;;;6171041;28;86450;-62
2021/01/29 06:07:12;;;;;;;375.63;110.05;;;23.20;30.30;;;;;;6162428;28;86866;-63
2021/01/29 06:10:13;;;;;;;369.23;103.60;;;23.20;30.50;;;;;;6173791;27;85737;-63
2021/01/29 06:13:13;;;;;;;297.52;90.22;;;23.20;30.60;;;;;;6172667;28;86464;-63
2021/01/29 06:16:14;;;;;;;278.55;90.10;;;23.30;30.80;;;;;;6168776;28;86619;-63
2021/01/29 06:19:14;;;;;;;250.77;80.60;;;23.30;30.80;;;;;;6147374;27;85903;-63
2021/01/29 06:22:15;;;;;;;233.10;68.60;;;23.20;30.90;;;;;;6158247;28;83035;-63
2021/01/29 06:25:15;;;;;;;210.15;65.22;;;23.30;31.30;;;;;;6174308;28;83667;-63
2021/01/29 06:28:16;;;;;;;211.32;64.22;;;23.30;31.50;;;;;;6175389;28;83532;-63
2021/01/29 06:31:16;;;;;;;183.70;58.08;;;23.30;31.50;;;;;;6171035;27;83118;-63
2021/01/29 06:34:17;;;;;;;165.25;54.03;;;23.30;31.60;;;;;;6172508;27;86624;-63
2021/01/29 06:37:17;;;;;;;162.60;50.45;;;23.30;31.60;;;;;;6144471;27;83664;-63
2021/01/29 06:40:18;;;;;;;149.13;48.03;;;23.30;31.80;;;;;;6177711;28;83110;-64
2021/01/29 06:43:18;;;;;;;140.27;44.35;;;23.30;31.50;;;;;;6177836;27;83611;-67
2021/01/29 06:46:19;;;;;;;133.35;43.30;;;23.20;31.30;;;;;;6179132;27;83854;-63
2021/01/29 06:49:19;;;;;;;123.05;41.63;;;23.20;31.30;;;;;;6168286;27;84006;-64
2021/01/29 06:52:20;;;;;;;110.80;37.03;;;23.20;31.00;;;;;;6168078;28;83288;-66
2021/01/29 06:55:20;;;;;;;106.63;33.92;;;23.20;31.10;;;;;;6177248;28;82913;-64
2021/01/29 06:58:21;;;;;;;96.32;31.70;;;23.10;30.60;;;;;;6161792;27;85445;-63
2021/01/29 07:01:21;;;;;;;95.85;29.45;;;23.20;31.20;;;;;;6171613;28;84112;-61
2021/01/29 07:04:22;;;;;;;93.10;30.13;;;23.20;30.90;;;;;;6168583;28;82866;-62
2021/01/29 07:07:23;;;;;;;83.30;28.02;;;23.20;30.50;;;;;;6143441;28;83773;-62
2021/01/29 07:10:23;;;;;;;82.97;28.10;;;23.20;30.90;;;;;;6163898;28;83522;-64
2021/01/29 07:13:24;;;;;;;70.55;22.33;;;23.20;30.50;;;;;;6154522;27;84135;-62
2021/01/29 07:16:24;;;;;;;77.25;22.15;;;23.20;30.50;;;;;;6154405;28;84921;-63
2021/01/29 07:19:25;;;;;;;55.92;19.55;;;23.20;29.90;;;;;;6158841;28;83396;-63
2021/01/29 07:22:25;;;;;;;51.13;18.75;;;23.20;29.80;;;;;;6166720;28;83492;-62
2021/01/29 07:25:26;;;;;;;46.22;17.20;;;23.30;29.90;;;;;;6162189;28;83958;-63
2021/01/29 07:28:28;;;;;;;44.40;15.00;;;23.30;29.50;;;;;;6150951;28;84333;-63
2021/01/29 07:31:29;;;;;;;39.80;16.27;;;23.40;29.60;;;;;;6176870;27;83325;-63
2021/01/29 07:34:30;;;;;;;43.70;13.85;;;23.40;29.10;;;;;;6174377;28;83336;-63
2021/01/29 07:37:31;;;;;;;35.13;12.13;;;23.40;29.30;;;;;;6182231;28;83688;-63
2021/01/29 07:40:31;;;;;;;31.15;11.57;;;23.40;29.90;;;;;;6180625;27;83746;-64
2021/01/29 07:43:32;;;;;;;27.73;11.27;;;23.40;29.60;;;;;;6173536;27;83102;-63
2021/01/29 07:46:34;;;;;;;30.20;10.70;;;23.40;29.70;;;;;;6176652;28;85708;-65
2021/01/29 07:49:34;;;;;;;18.70;9.00;;;23.50;29.50;;;;;;6175797;28;84103;-63
2021/01/29 07:52:35;;;;;;;21.20;9.10;;;23.50;29.50;;;;;;6178561;28;81608;-62
2021/01/29 07:55:36;;;;;;;29.90;9.52;;;23.50;29.70;;;;;;6179106;27;80365;-64
2021/01/29 07:58:36;;;;;;;24.38;8.88;;;23.50;29.80;;;;;;6178284;28;80515;-63
2021/01/29 08:01:37;;;;;;;21.13;7.72;;;23.50;29.40;;;;;;6181181;27;80427;-63
2021/01/29 08:04:38;;;;;;;23.77;9.43;;;23.50;29.80;;;;;;6175962;27;80789;-64
2021/01/29 08:07:38;;;;;;;15.05;7.25;;;23.50;29.30;;;;;;6171291;28;80672;-63
2021/01/29 08:10:39;;;;;;;16.80;7.35;;;23.60;28.90;;;;;;6174868;28;80695;-63
2021/01/29 08:13:39;;;;;;;18.42;8.02;;;23.60;29.30;;;;;;6178572;27;81486;-63
2021/01/29 08:16:40;;;;;;;17.10;6.88;;;23.60;28.80;;;;;;6175524;28;80476;-64
2021/01/29 08:19:40;;;;;;;12.55;6.60;;;23.60;28.70;;;;;;6157337;27;81755;-64
2021/01/29 08:22:41;;;;;;;15.15;5.90;;;23.60;28.20;;;;;;6172775;27;80983;-63
2021/01/29 08:25:42;;;;;;;15.63;6.68;;;23.60;28.10;;;;;;6159374;28;80928;-63
2021/01/29 08:28:42;;;;;;;14.73;6.15;;;23.70;28.40;;;;;;6179908;28;81316;-63
2021/01/29 08:31:43;;;;;;;13.27;6.20;;;23.80;29.80;;;;;;6176959;28;80436;-63
2021/01/29 08:35:06;;;;;;;14.75;5.45;;;23.80;29.00;;;;;;6169668;28;81199;-62
2021/01/29 08:38:07;;;;;;;10.85;5.47;;;23.80;28.60;;;;;;6173277;28;80702;-63
2021/01/29 08:41:07;;;;;;;12.77;5.93;;;23.90;28.40;;;;;;6163477;28;80628;-63
2021/01/29 08:44:08;;;;;;;13.60;5.25;;;23.90;28.10;;;;;;6166494;28;82373;-64
2021/01/29 08:47:08;;;;;;;12.18;5.78;;;23.90;28.00;;;;;;6151056;28;81689;-64
2021/01/29 08:50:09;;;;;;;13.38;5.45;;;24.00;28.10;;;;;;6159768;28;88827;-63
2021/01/29 08:53:10;;;;;;;14.73;5.85;;;24.00;28.40;;;;;;6171328;28;81323;-63
2021/01/29 08:56:11;;;;;;;16.77;6.70;;;24.00;28.50;;;;;;6175453;27;81546;-63
2021/01/29 08:59:13;;;;;;;17.95;6.85;;;24.10;28.20;;;;;;6153734;27;81285;-66
2021/01/29 09:02:13;;;;;;;21.63;7.57;;;24.10;28.20;;;;;;6153901;28;80778;-65
2021/01/29 09:05:14;;;;;;;17.90;5.90;;;24.10;28.20;;;;;;6171757;28;82714;-65
2021/01/29 09:08:14;;;;;;;17.20;6.07;;;24.10;28.30;;;;;;6183314;28;83676;-66
2021/01/29 09:11:15;;;;;;;12.75;5.88;;;24.20;28.90;;;;;;6171101;27;84040;-66
2021/01/29 09:14:15;;;;;;;14.10;6.10;;;24.30;28.40;;;;;;6160325;28;80436;-66
2021/01/29 09:17:16;;;;;;;12.52;6.00;;;24.30;28.40;;;;;;6178405;27;80749;-65
2021/01/29 09:20:16;;;;;;;14.70;5.90;;;24.30;28.40;;;;;;6179377;27;80603;-65
2021/01/29 09:23:17;;;;;;;12.68;6.20;;;24.30;29.00;;;;;;6177980;27;80622;-67
2021/01/29 09:26:17;;;;;;;16.60;6.00;;;24.40;28.50;;;;;;6170130;27;80494;-64
2021/01/29 09:29:18;;;;;;;16.45;6.35;;;24.40;29.60;;;;;;6156756;28;80832;-64
2021/01/29 09:32:18;;;;;;;14.82;5.68;;;24.40;29.00;;;;;;6151713;28;81860;-63
2021/01/29 09:35:19;;;;;;;12.57;5.90;;;24.50;28.90;;;;;;6156790;28;86334;-63
2021/01/29 09:38:20;;;;;;;13.77;5.53;;;24.40;28.80;;;;;;6165486;27;81006;-64
2021/01/29 09:41:20;;;;;;;11.25;5.47;;;24.50;29.00;;;;;;6185232;28;80930;-63
2021/01/29 09:44:21;;;;;;;18.92;6.22;;;24.50;28.90;;;;;;6158450;27;81711;-63
2021/01/29 09:47:22;;;;;;;14.23;5.40;;;24.50;29.30;;;;;;6184760;27;81437;-62
2021/01/29 09:50:23;;;;;;;12.98;5.90;;;24.50;29.30;;;;;;6173076;27;80677;-62
2021/01/29 09:53:23;;;;;;;13.55;5.90;;;24.50;27.60;;;;;;6168279;28;80622;-63
2021/01/29 09:56:24;;;;;;;11.93;6.38;;;24.40;26.70;;;;;;6174066;27;80860;-64
2021/01/29 09:59:25;;;;;;;12.68;6.82;;;24.40;26.20;;;;;;6180334;28;81245;-62
2021/01/29 10:02:25;;;;;;;16.05;7.35;;;24.30;25.90;;;;;;6178303;28;82005;-64
2021/01/29 10:05:26;;;;;;;17.70;7.05;;;24.30;25.90;;;;;;6181280;28;80913;-64
2021/01/29 10:08:26;;;;;;;22.10;7.55;;;24.20;26.00;;;;;;6183571;27;80764;-64
2021/01/29 10:11:27;;;;;;;16.88;8.18;;;24.30;26.10;;;;;;6179732;27;82049;-63
2021/01/29 10:14:27;;;;;;;21.48;8.90;;;24.20;25.30;;;;;;6151174;27;81006;-63
2021/01/29 10:17:28;;;;;;;21.52;7.55;;;24.20;25.30;;;;;;6162267;28;80607;-64
2021/01/29 10:20:28;;;;;;;14.48;7.90;;;24.10;25.10;;;;;;6167699;28;81519;-62
2021/01/29 10:23:29;;;;;;;14.85;8.15;;;24.10;25.10;;;;;;6181031;28;81668;-63
2021/01/29 10:26:29;;;;;;;25.60;8.52;;;24.10;25.60;;;;;;6158166;28;81421;-62
2021/01/29 10:29:30;;;;;;;25.38;9.48;;;24.00;26.00;;;;;;6141930;28;80787;-63
2021/01/29 10:32:33;;;;;;;19.55;8.52;;;24.10;26.40;;;;;;6173031;28;80437;-63
2021/01/29 10:35:33;;;;;;;20.63;9.95;;;24.00;26.70;;;;;;6149541;27;81803;-63
2021/01/29 10:38:34;;;;;;;16.10;9.05;;;24.00;27.00;;;;;;6184272;28;81010;-62
2021/01/29 10:41:35;;;;;;;18.15;8.73;;;24.00;27.50;;;;;;6171864;28;81526;-63
2021/01/29 10:44:35;;;;;;;21.55;9.13;;;24.00;27.80;;;;;;6156170;28;80566;-63
2021/01/29 10:47:36;;;;;;;19.58;9.50;;;24.00;27.90;;;;;;6171401;28;80697;-63
2021/01/29 10:50:36;;;;;;;15.90;9.05;;;23.90;27.90;;;;;;6179202;28;80541;-66
2021/01/29 10:53:37;;;;;;;17.80;9.43;;;24.00;27.50;;;;;;6177614;27;83572;-67
2021/01/29 10:56:37;;;;;;;15.52;9.02;;;24.00;26.70;;;;;;6175437;28;80672;-65
2021/01/29 10:59:38;;;;;;;22.70;9.55;;;23.90;25.90;;;;;;6166113;28;80814;-62
2021/01/29 11:02:39;;;;;;;16.10;8.77;;;23.90;25.30;;;;;;6154650;28;80622;-62
2021/01/29 11:05:39;;;;;;;16.00;8.45;;;24.00;26.50;;;;;;6169829;28;82804;-62
2021/01/29 11:08:40;;;;;;;13.48;7.55;;;24.10;26.30;;;;;;6160745;28;80919;-62
2021/01/29 11:11:40;;;;;;;26.35;8.23;;;24.20;26.50;;;;;;6145901;28;81719;-62
2021/01/29 11:14:41;;;;;;;17.67;7.53;;;24.30;27.00;;;;;;6153816;28;80517;-61
2021/01/29 11:17:41;;;;;;;15.00;7.60;;;24.40;27.00;;;;;;6153127;28;80856;-64
2021/01/29 11:20:42;;;;;;;16.85;7.47;;;24.50;27.10;;;;;;6150759;28;83629;-62
2021/01/29 11:23:42;;;;;;;13.68;7.38;;;24.40;26.60;;;;;;6160405;28;81263;-62
2021/01/29 11:26:43;;;;;;;13.80;7.05;;;24.50;26.60;;;;;;6178857;27;85028;-63
2021/01/29 11:29:44;;;;;;;11.70;6.72;;;24.40;27.30;;;;;;6176857;28;82131;-63
2021/01/29 11:32:44;;;;;;;14.27;8.13;;;24.40;27.10;;;;;;6189853;28;81725;-63
2021/01/29 11:35:45;;;;;;;13.52;6.60;;;24.30;27.00;;;;;;6178905;28;81135;-66
2021/01/29 11:38:45;;;;;;;13.60;6.47;;;24.40;27.30;;;;;;6165327;27;80747;-62
2021/01/29 11:41:46;;;;;;;12.70;6.97;;;24.40;27.70;;;;;;6163926;28;80591;-64
2021/01/29 11:44:47;;;;;;;17.38;6.57;;;24.40;27.70;;;;;;6170703;28;81568;-63
2021/01/29 11:47:47;;;;;;;11.88;6.20;;;24.40;27.90;;;;;;6157041;28;81522;-63
2021/01/29 11:50:48;;;;;;;11.85;6.70;;;24.30;27.60;;;;;;6145133;28;81825;-63
2021/01/29 11:53:48;;;;;;;13.55;6.13;;;24.30;27.80;;;;;;6154677;28;81690;-62
2021/01/29 11:56:49;;;;;;;13.60;5.70;;;24.30;27.60;;;;;;6175724;28;80526;-62
2021/01/29 11:59:49;;;;;;;12.25;6.10;;;24.30;27.30;;;;;;6160069;28;81433;-64
2021/01/29 12:02:51;;;;;;;13.85;6.78;;;24.30;27.10;;;;;;6139185;28;80473;-62
2021/01/29 12:05:53;;;;;;;9.93;5.95;;;24.20;26.90;;;;;;6157049;28;80513;-66
2021/01/29 12:08:53;;;;;;;12.15;6.18;;;24.30;26.70;;;;;;6163100;28;81433;-65
2021/01/29 12:11:54;;;;;;;11.07;5.72;;;24.20;26.80;;;;;;6167631;27;80638;-63
2021/01/29 12:14:54;;;;;;;10.93;6.05;;;24.20;26.50;;;;;;6172214;28;80736;-64
2021/01/29 12:17:55;;;;;;;9.55;5.63;;;24.30;26.20;;;;;;6181228;28;80928;-64
2021/01/29 12:20:56;;;;;;;15.32;6.65;;;24.30;25.90;;;;;;6160301;28;81475;-64
2021/01/29 12:23:58;;;;;;;11.07;6.95;;;24.30;25.60;;;;;;6167084;28;81005;-64
2021/01/29 12:26:59;;;;;;;12.02;6.82;;;24.30;26.20;;;;;;6174502;28;82886;-64
2021/01/29 12:30:00;;;;;;;11.38;6.28;;;24.30;26.00;;;;;;6180221;27;80964;-64
2021/01/29 12:33:00;;;;;;;12.90;6.53;;;24.40;25.80;;;;;;6177806;28;81164;-64
2021/01/29 12:36:01;;;;;;;11.18;6.40;;;24.40;25.90;;;;;;6153709;28;80503;-64
2021/01/29 12:39:02;;;;;;;14.02;5.82;;;24.30;26.00;;;;;;6175654;28;80998;-64
2021/01/29 12:42:03;;;;;;;9.77;5.47;;;24.30;25.50;;;;;;6182212;27;80647;-64
2021/01/29 12:45:03;;;;;;;10.80;6.10;;;24.30;25.70;;;;;;6165597;28;80334;-64
2021/01/29 12:48:04;;;;;;;12.18;6.20;;;24.20;25.70;;;;;;6173054;28;80635;-64
2021/01/29 12:51:04;;;;;;;9.15;5.55;;;24.20;25.80;;;;;;6172047;28;82438;-65
2021/01/29 12:54:05;;;;;;;12.43;5.55;;;24.20;26.30;;;;;;6170969;27;82475;-66
2021/01/29 12:57:05;;;;;;;12.50;5.97;;;24.20;25.70;;;;;;6162244;27;81394;-64
2021/01/29 13:00:06;;;;;;;8.45;5.60;;;24.10;25.80;;;;;;6170979;27;80924;-64
2021/01/29 13:03:06;;;;;;;10.60;5.45;;;24.10;26.00;;;;;;6183771;28;80597;-65
2021/01/29 13:06:07;;;;;;;13.40;5.97;;;24.10;26.50;;;;;;6180776;28;81119;-65
2021/01/29 13:09:08;;;;;;;10.95;5.82;;;24.10;26.10;;;;;;6162793;28;81656;-65
2021/01/29 13:12:08;;;;;;;11.27;5.60;;;24.10;26.40;;;;;;6157357;28;80543;-64
2021/01/29 13:15:09;;;;;;;10.07;5.10;;;24.10;26.70;;;;;;6160535;28;80677;-65
2021/01/29 13:18:14;;;;;;;9.35;5.35;;;24.10;26.80;;;;;;6176842;28;81191;-64
2021/01/29 13:21:14;;;;;;;12.93;6.00;;;24.10;27.00;;;;;;6150515;28;81170;-65
2021/01/29 13:24:15;;;;;;;9.45;5.35;;;24.00;26.60;;;;;;6174552;28;80481;-66
2021/01/29 13:27:16;;;;;;;12.23;6.35;;;24.00;26.80;;;;;;6181470;28;80612;-65
2021/01/29 13:30:17;;;;;;;9.45;5.78;;;23.90;26.60;;;;;;6180054;28;80708;-66
2021/01/29 13:33:18;;;;;;;9.75;6.00;;;23.90;26.70;;;;;;6181243;28;81399;-65
2021/01/29 13:36:18;;;;;;;12.82;6.30;;;23.90;26.50;;;;;;6165086;28;81146;-64
2021/01/29 13:39:19;;;;;;;11.43;5.95;;;23.90;26.80;;;;;;6162182;28;81568;-64
2021/01/29 13:42:19;;;;;;;12.00;6.05;;;23.90;26.90;;;;;;6174410;28;81514;-65
2021/01/29 13:45:20;;;;;;;14.55;6.93;;;23.90;27.80;;;;;;6176399;28;81349;-66
2021/01/29 13:48:21;;;;;;;13.80;6.05;;;23.90;28.40;;;;;;6178418;28;81565;-67
2021/01/29 13:51:21;;;;;;;17.25;6.47;;;23.90;29.30;;;;;;6177597;27;83132;-69
2021/01/29 13:54:22;;;;;;;12.48;6.22;;;23.90;28.70;;;;;;6160602;28;81344;-65
2021/01/29 13:57:22;;;;;;;11.98;5.88;;;23.80;28.90;;;;;;6161523;28;80760;-65
2021/01/29 14:00:24;;;;;;;14.05;6.20;;;23.80;29.50;;;;;;6147957;28;81164;-65
2021/01/29 14:03:25;;;;;;;14.75;6.60;;;23.80;28.60;;;;;;6175446;28;85899;-66
2021/01/29 14:06:25;;;;;;;10.95;5.13;;;23.80;28.30;;;;;;6187056;27;80160;-65
2021/01/29 14:09:26;;;;;;;9.93;4.97;;;23.90;28.90;;;;;;6161496;28;80885;-65
2021/01/29 14:12:26;;;;;;;9.32;4.97;;;23.90;29.20;;;;;;6176675;28;80526;-66
2021/01/29 14:15:27;;;;;;;12.00;5.45;;;23.90;28.60;;;;;;6174584;28;80555;-65
2021/01/29 14:18:27;;;;;;;11.07;5.60;;;24.00;28.60;;;;;;6169822;27;80888;-66
2021/01/29 14:21:28;;;;;;;11.13;5.32;;;24.00;28.10;;;;;;6179068;28;80576;-65
2021/01/29 14:24:29;;;;;;;10.07;5.93;;;24.00;28.00;;;;;;6183083;28;80850;-67
2021/01/29 14:27:29;;;;;;;12.52;5.25;;;24.00;28.00;;;;;;6172222;27;81417;-67
2021/01/29 14:30:30;;;;;;;11.57;5.57;;;24.00;28.20;;;;;;6180298;28;81934;-66
2021/01/29 14:33:31;;;;;;;10.18;5.45;;;24.00;27.80;;;;;;6162211;27;81646;-68
2021/01/29 14:36:31;;;;;;;9.63;5.35;;;24.00;27.90;;;;;;6143197;28;84627;-68
2021/01/29 14:39:32;;;;;;;8.77;5.10;;;24.00;27.70;;;;;;6160243;28;81285;-68
2021/01/29 14:42:32;;;;;;;12.98;5.55;;;24.10;27.60;;;;;;6168919;28;81009;-67
2021/01/29 14:45:33;;;;;;;9.10;5.05;;;24.10;27.40;;;;;;6184780;28;81617;-69
2021/01/29 14:48:33;;;;;;;13.23;6.10;;;24.10;27.70;;;;;;6176645;27;80465;-68
2021/01/29 14:51:34;;;;;;;8.98;4.97;;;24.00;28.10;;;;;;6158065;27;80514;-69
2021/01/29 14:54:34;;;;;;;14.23;5.63;;;24.00;27.80;;;;;;6171886;28;83879;-68
2021/01/29 14:57:35;;;;;;;8.45;5.10;;;24.10;27.80;;;;;;6159714;27;80764;-68
2021/01/29 15:00:36;;;;;;;10.25;5.80;;;24.10;27.70;;;;;;6169271;28;80754;-69
2021/01/29 15:03:36;;;;;;;12.82;6.28;;;24.00;27.70;;;;;;6160098;27;80912;-68
2021/01/29 15:06:37;;;;;;;16.83;8.45;;;24.00;27.20;;;;;;6169583;28;80282;-63
2021/01/29 15:09:37;;;;;;;17.05;9.02;;;24.00;26.30;;;;;;6178676;28;80605;-64
2021/01/29 15:12:38;;;;;;;24.63;10.05;;;23.80;26.20;;;;;;6180377;28;80962;-65
2021/01/29 15:15:38;;;;;;;18.30;9.13;;;23.80;26.10;;;;;;6160657;28;83707;-65
2021/01/29 15:18:39;;;;;;;17.45;9.23;;;23.80;26.20;;;;;;6173116;28;83020;-64
2021/01/29 15:21:39;;;;;;;17.15;8.55;;;23.80;26.70;;;;;;6182613;27;81181;-66
2021/01/29 15:24:40;;;;;;;20.83;10.00;;;23.80;26.70;;;;;;6160815;27;80406;-65
2021/01/29 15:27:40;;;;;;;20.58;10.77;;;23.80;26.70;;;;;;6170628;28;83658;-65
2021/01/29 15:30:42;;;;;;;22.17;10.13;;;23.80;26.90;;;;;;6154681;27;84289;-65
2021/01/29 15:33:43;;;;;;;21.23;10.18;;;23.80;27.30;;;;;;6151277;28;84037;-65
2021/01/29 15:36:43;;;;;;;21.42;9.70;;;23.70;26.90;;;;;;6159071;27;84202;-66
2021/01/29 15:39:44;;;;;;;21.73;10.70;;;23.70;27.30;;;;;;6149673;28;84142;-66